Douglas, AL (35964)

3:51 PM CDT on September 21, 2014 (GMT -0500)
Albertville | Change Station
CLOSE
Current Station
Airport
Location: Albertville,
Elevation: 1033 ft
Nearby Weather Stations

Elev 1033 ft 34.23 °N, 86.26 °W | Updated 16 minutes ago

Partly Cloudy
Partly Cloudy
86 °F
Feels Like 90 °F
N
6
Wind Variable Wind from West
Gusts 16 mph

Today
High -- | Low -- °F
--% Chance of Precip.
Yesterday
High -- | Low -- °F
Precip. -- in
6:32 AM 6:43 PM
Waning Crescent, 5% visible
Pressure 29.96 in
Visibility 10.0 miles
Clouds Scattered Clouds 5000 ft
Mostly Cloudy 6500 ft
Mostly Cloudy 9000 ft
Heat Index 90 °F
Dew Point 70 °F
Humidity 58%
Rainfall 0.00 in
Snow Depth Not available.
UV 2 out of 12
Pollen 7.50 out of 12
Ozone Good
PM2.5 Moderate
Flu Activity Not available.
METAR K8A0 212035Z AUTO 26005G14KT 10SM SCT050 BKN065 BKN090 30/21 A2996 RMK AO2

More Conditions Fewer Conditions

Pressure 29.96 in
Visibility 10.0 miles
Clouds Scattered Clouds 5000 ft
Mostly Cloudy 6500 ft
Mostly Cloudy 9000 ft
Heat Index 90 °F
Dew Point 70 °F
Humidity 58%
Rainfall 0.00 in
Snow Depth Not available.
UV 2 out of 12
Pollen 7.50 out of 12
Ozone Good
PM2.5 Moderate
Flu Activity Not available.
METAR K8A0 212035Z AUTO 26005G14KT 10SM SCT050 BKN065 BKN090 30/21 A2996 RMK AO2

More Conditions Fewer Conditions

10-Day Weather Forecast

Almanac

Astronomy

Sep. 21, 2014 Rise Set
Actual Time 6:32 AM CDT 6:43 PM CDT
Civil Twilight 6:07 AM CDT 7:08 PM CDT
Nautical Twilight 5:38 AM CDT 7:37 PM CDT
Astronomical Twilight 5:08 AM CDT 8:07 PM CDT
Moon 4:10 AM CDT 5:15 PM CDT
Length of Visible Light 13h 00m
Length of Day
12h 10m
Tomorrow will be 2m 8s shorter.
Waning Crescent, 5% of the Moon is Illuminated
Today
Waning Crescent
Sep 24
New
Oct 1
First Quarter
Oct 8
Full
Oct 15
Last Quarter

Today's Extremes

State Highs State Lows

Community

WunderPhotos

Upload Photos

1,755,250 photos uploaded!

Nearby

Air Quality

  Air Quality AQ Index Pollutant
Yesterday Good
OZONE
Yesterday Good
PM10
Current Moderate
PM2.5
Current Good
OZONE
Sunday Moderate
PM2.5
Sunday Good
OZONE
Monday Good
OZONE
Monday Good
PM2.5

Snow Depth

Station Depth Elevation
No new snow has been reported.

Earthquake Activity

City Distance Mag. Time & Date
Sweetwater, Tennessee 147 miles 2.5 2:54 PM CDT
2014-09-20
Minimum magnitude displayed is 2.5.

Coastal Water Temperatures

Place Temperature
No Stations Reporting

Nearby Weather Stations